Anthem Of The Seas — C6BI7 — position and weather

sailwx.info

Track history (hours):
 
Tides and Currents Weather Stations Pressure Air Temp Water Temp Dewpoint Dewpoint Depression Visibility Wind Speed Wind Dir Waves Ship Positions

Anthem Of The Seas

Last reported at 2017-May-25 10:30 UTC. Time now 2017-May-25 10:38 UTC.
Position N 40°37' W 074°03'.

Length 348 m; draft 8.8 m.

Type: Passenger vessel. MMSI: 311000274.

Date/timePositionNaut miles runAvg speedWind from/ knotsBaromVisibWave heightAir tempDewpointWater temp
2017-May-25 10:30N 40°37' W 074°03'714.1
2017-May-25 10:00N 40°31' W 073°58'816.9
2017-May-25 09:30N 40°27' W 073°48'611.0
2017-May-25 09:00N 40°22' W 073°47'916.5
2017-May-25 08:27N 40°13' W 073°45'1216.4
2017-May-25 07:43N 40°01' W 073°43'416.3
2017-May-25 07:28N 39°57' W 073°42'816.2
2017-May-25 06:58N 39°49' W 073°41'1216.6
2017-May-25 06:15N 39°37' W 073°37'417.8
2017-May-25 06:00N 39°33' W 073°35'3317.4
2017-May-25 04:05N 39°03' W 073°18'716.7
2017-May-25 03:39N 38°56' W 073°14'316.5
2017-May-25 03:30N 38°54' W 073°13'  
2017-May-20 23:40N 39°57' W 073°16'317.0
2017-May-20 23:30N 39°60' W 073°19'1217.8
2017-May-20 22:50N 40°09' W 073°29'617.9
2017-May-20 22:29N 40°13' W 073°34'918.1
2017-May-20 22:01N 40°20' W 073°41'917.8
2017-May-20 21:30N 40°26' W 073°50'613.1
2017-May-20 21:00N 40°30' W 073°57'815.3
2017-May-20 20:30N 40°36' W 074°03'4 7.1
2017-May-20 19:58N 40°40' W 074°04'0 0.0
2017-May-20 19:28N 40°40' W 074°04'0 0.0
2017-May-20 18:58N 40°40' W 074°04'0 0.0
2017-May-20 18:28N 40°40' W 074°04'0 0.0
2017-May-20 17:58N 40°40' W 074°04'0 0.0
2017-May-20 17:28N 40°40' W 074°04'0 0.0
2017-May-20 16:58N 40°40' W 074°04'0 0.0
2017-May-20 16:28N 40°40' W 074°04'0 0.0
2017-May-20 15:58N 40°40' W 074°04'0 0.0
2017-May-20 15:28N 40°40' W 074°04'0 0.0
2017-May-20 14:58N 40°40' W 074°04'0 0.0
2017-May-20 14:28N 40°40' W 074°04'0 0.0
2017-May-20 13:28N 40°40' W 074°04'0 0.0
2017-May-20 12:58N 40°40' W 074°04'0 0.0
2017-May-20 12:28N 40°40' W 074°04'0 0.0
2017-May-20 11:58N 40°40' W 074°04'0 0.0
2017-May-20 11:28N 40°40' W 074°04'0 0.2
2017-May-20 11:00N 40°40' W 074°04'2 3.9
2017-May-20 10:30N 40°38' W 074°03'612.9
2017-May-20 10:00N 40°32' W 074°01'816.9
2017-May-20 09:30N 40°28' W 073°51'713.0
2017-May-20 09:01N 40°22' W 073°46'917.3
2017-May-20 08:28N 40°13' W 073°45'817.0
2017-May-20 07:59N 40°05' W 073°44'816.8
2017-May-20 07:30N 39°57' W 073°43'816.7
2017-May-20 07:00N 39°49' W 073°41'816.2
2017-May-20 06:31N 39°41' W 073°40'816.2
2017-May-20 06:01N 39°33' W 073°39'816.8
2017-May-20 05:30N 39°24' W 073°39'816.2
2017-May-20 05:00N 39°16' W 073°38'1019.7
2017-May-20 04:30N 39°06' W 073°37'  
2017-May-16 19:06N 18°32' W 066°10'216.4
2017-May-16 19:00N 18°31' W 066°08'4 0.4
2017-May-16 10:29N 18°28' W 066°07'4 7.1
2017-May-16 09:57N 18°31' W 066°06'6716.5
2017-May-16 05:55N 18°13' W 064°59'819.0
2017-May-16 05:31N 18°12' W 064°51'1119.0
2017-May-16 04:57N 18°10' W 064°40'819.1
2017-May-16 04:30N 18°10' W 064°31'6518.8
2017-May-16 01:05N 18°03' W 063°23'219.0
2017-May-16 00:58N 18°03' W 063°21'1019.0
2017-May-16 00:27N 18°01' W 063°11'716.2
2017-May-16 00:00N 18°00' W 063°03'1 0.9
2017-May-15 23:14N 18°01' W 063°03'0 0.0
2017-May-15 22:47N 18°01' W 063°03'0 0.0
2017-May-15 22:17N 18°01' W 063°03'0 0.0
2017-May-15 21:47N 18°01' W 063°03'0 0.0
2017-May-15 21:29N 18°01' W 063°03'0 0.0
2017-May-15 20:59N 18°01' W 063°03'0 0.0
2017-May-15 20:20N 18°01' W 063°03'0 0.0
2017-May-15 19:50N 18°01' W 063°03'0 0.0
2017-May-15 18:53N 18°01' W 063°03'0 0.0
2017-May-15 18:23N 18°01' W 063°03'0 0.0
2017-May-15 17:53N 18°01' W 063°03'0 0.0
2017-May-15 16:50N 18°01' W 063°03'0 0.0
2017-May-15 16:11N 18°01' W 063°03'0 0.8
2017-May-15 15:46N 18°00' W 063°03'2 6.0
2017-May-15 15:28N 18°00' W 063°05'714.7
2017-May-15 15:00N 18°01' W 063°12'1816.7
2017-May-15 13:55N 18°15' W 063°25'716.7
2017-May-15 13:30N 18°21' W 063°27'  
Track history (hours):
 
Tides and Currents Weather Stations Pressure Air Temp Water Temp Dewpoint Dewpoint Depression Visibility Wind Speed Wind Dir Waves Ship Positions

Anthem Of The Seas

Last reported at 2017-May-25 10:30 UTC. Time now 2017-May-25 10:38 UTC.
Position N 40°37' W 074°03'.

Length 348 m; draft 8.8 m.

Type: Passenger vessel. MMSI: 311000274.

Date/timePositionNaut miles runAvg speedWind from/ knotsBaromVisibWave heightAir tempDewpointWater temp
2017-May-25 10:30N 40°37' W 074°03'714.1
2017-May-25 10:00N 40°31' W 073°58'816.9
2017-May-25 09:30N 40°27' W 073°48'611.0
2017-May-25 09:00N 40°22' W 073°47'916.5
2017-May-25 08:27N 40°13' W 073°45'1216.4
2017-May-25 07:43N 40°01' W 073°43'416.3
2017-May-25 07:28N 39°57' W 073°42'816.2
2017-May-25 06:58N 39°49' W 073°41'1216.6
2017-May-25 06:15N 39°37' W 073°37'417.8
2017-May-25 06:00N 39°33' W 073°35'3317.4
2017-May-25 04:05N 39°03' W 073°18'716.7
2017-May-25 03:39N 38°56' W 073°14'316.5
2017-May-25 03:30N 38°54' W 073°13'  
2017-May-20 23:40N 39°57' W 073°16'317.0
2017-May-20 23:30N 39°60' W 073°19'1217.8
2017-May-20 22:50N 40°09' W 073°29'617.9
2017-May-20 22:29N 40°13' W 073°34'918.1
2017-May-20 22:01N 40°20' W 073°41'917.8
2017-May-20 21:30N 40°26' W 073°50'613.1
2017-May-20 21:00N 40°30' W 073°57'815.3
2017-May-20 20:30N 40°36' W 074°03'4 7.1
2017-May-20 19:58N 40°40' W 074°04'0 0.0
2017-May-20 19:28N 40°40' W 074°04'0 0.0
2017-May-20 18:58N 40°40' W 074°04'0 0.0
2017-May-20 18:28N 40°40' W 074°04'0 0.0
2017-May-20 17:58N 40°40' W 074°04'0 0.0
2017-May-20 17:28N 40°40' W 074°04'0 0.0
2017-May-20 16:58N 40°40' W 074°04'0 0.0
2017-May-20 16:28N 40°40' W 074°04'0 0.0
2017-May-20 15:58N 40°40' W 074°04'0 0.0
2017-May-20 15:28N 40°40' W 074°04'0 0.0
2017-May-20 14:58N 40°40' W 074°04'0 0.0
2017-May-20 14:28N 40°40' W 074°04'0 0.0
2017-May-20 13:28N 40°40' W 074°04'0 0.0
2017-May-20 12:58N 40°40' W 074°04'0 0.0
2017-May-20 12:28N 40°40' W 074°04'0 0.0
2017-May-20 11:58N 40°40' W 074°04'0 0.0
2017-May-20 11:28N 40°40' W 074°04'0 0.2
2017-May-20 11:00N 40°40' W 074°04'2 3.9
2017-May-20 10:30N 40°38' W 074°03'612.9
2017-May-20 10:00N 40°32' W 074°01'816.9
2017-May-20 09:30N 40°28' W 073°51'713.0
2017-May-20 09:01N 40°22' W 073°46'917.3
2017-May-20 08:28N 40°13' W 073°45'817.0
2017-May-20 07:59N 40°05' W 073°44'816.8
2017-May-20 07:30N 39°57' W 073°43'816.7
2017-May-20 07:00N 39°49' W 073°41'816.2
2017-May-20 06:31N 39°41' W 073°40'816.2
2017-May-20 06:01N 39°33' W 073°39'816.8
2017-May-20 05:30N 39°24' W 073°39'816.2
2017-May-20 05:00N 39°16' W 073°38'1019.7
2017-May-20 04:30N 39°06' W 073°37'  
2017-May-16 19:06N 18°32' W 066°10'216.4
2017-May-16 19:00N 18°31' W 066°08'4 0.4
2017-May-16 10:29N 18°28' W 066°07'4 7.1
2017-May-16 09:57N 18°31' W 066°06'6716.5
2017-May-16 05:55N 18°13' W 064°59'819.0
2017-May-16 05:31N 18°12' W 064°51'1119.0
2017-May-16 04:57N 18°10' W 064°40'819.1
2017-May-16 04:30N 18°10' W 064°31'6518.8
2017-May-16 01:05N 18°03' W 063°23'219.0
2017-May-16 00:58N 18°03' W 063°21'1019.0
2017-May-16 00:27N 18°01' W 063°11'716.2
2017-May-16 00:00N 18°00' W 063°03'1 0.9
2017-May-15 23:14N 18°01' W 063°03'0 0.0
2017-May-15 22:47N 18°01' W 063°03'0 0.0
2017-May-15 22:17N 18°01' W 063°03'0 0.0
2017-May-15 21:47N 18°01' W 063°03'0 0.0
2017-May-15 21:29N 18°01' W 063°03'0 0.0
2017-May-15 20:59N 18°01' W 063°03'0 0.0
2017-May-15 20:20N 18°01' W 063°03'0 0.0
2017-May-15 19:50N 18°01' W 063°03'0 0.0
2017-May-15 18:53N 18°01' W 063°03'0 0.0
2017-May-15 18:23N 18°01' W 063°03'0 0.0
2017-May-15 17:53N 18°01' W 063°03'0 0.0
2017-May-15 16:50N 18°01' W 063°03'0 0.0
2017-May-15 16:11N 18°01' W 063°03'0 0.8
2017-May-15 15:46N 18°00' W 063°03'2 6.0
2017-May-15 15:28N 18°00' W 063°05'714.7
2017-May-15 15:00N 18°01' W 063°12'1816.7
2017-May-15 13:55N 18°15' W 063°25'716.7
2017-May-15 13:30N 18°21' W 063°27'  

Dump ship's entire track history